Menahga, MN

11:12 PM CST on December 26, 2014 (GMT -0600)
Pyburn Addition | Change Station
CLOSE
Current Station
Personal Weather Station
Location: Menahga, MN
Elevation: 1444 ft
Nearby Weather Stations

Elev 1444 ft 46.84 °N, 95.09 °W | Updated 18 seconds ago

Overcast
Overcast
20.5 °F
Feels Like 20 °F
N
0.9
Wind Variable Wind from NW
Gusts 2.5 mph

Today
High -- | Low -- °F
--% Chance of Precip.
Yesterday
High -- | Low -- °F
Precip. -- in
8:03 AM 4:37 PM
Waxing Crescent, 32% visible
Pressure 30.18 in
Visibility 10.0 miles
Clouds Overcast 1200 ft
Windchill 20 °F
Dew Point 14 °F
Humidity 77%
Rainfall 0.00 in
Snow Depth Not available.
UV 0.0 out of 12
Pollen .10 out of 12
Air Quality Not available.
Flu Activity Not available.
METAR KPKD 270453Z AUTO 35007KT 10SM OVC012 M06/M09 A3011 RMK AO2 SLP220 T10611094

More Conditions Fewer Conditions

Pressure 30.18 in
Visibility 10.0 miles
Clouds Overcast 1200 ft
Windchill 20 °F
Dew Point 14 °F
Humidity 77%
Rainfall 0.00 in
Snow Depth Not available.
UV 0.0 out of 12
Pollen .10 out of 12
Air Quality Not available.
Flu Activity Not available.
METAR KPKD 270453Z AUTO 35007KT 10SM OVC012 M06/M09 A3011 RMK AO2 SLP220 T10611094

More Conditions Fewer Conditions

10-Day Weather Forecast

Almanac

Astronomy

Dec. 26, 2014 Rise Set
Actual Time
Civil Twilight
Nautical Twilight
Astronomical Twilight
Moon
Length of Visible Light
Length of Day
Tomorrow will be .
, % of the Moon is Illuminated

Today's Extremes

State Highs State Lows

Community

WunderPhotos

Upload Photos

1,780,848 photos uploaded!

WunderBlogs® & News

Nearby

Air Quality

  Air Quality AQ Index Pollutant
Not available.

Snow Depth

Station Depth Elevation

Earthquake Activity

City Distance Mag. Time & Date
Minimum magnitude displayed is 2.5.

Coastal Water Temperatures

Place Temperature

Nearby Weather Stations